Time;durP1;ratioP1;P1;durP2;ratioP2;P2;SDS_P1;SDS_P2;PMS_P1;PMS_P2;Temp;Humidity;BMP_temperature;BMP_pressure;BME280_temperature;BME280_humidity;BME280_pressure;Samples;Min_cycle;Max_cycle;Signal;HPM_P1;HPM_P2
2023/07/21 00:01:10;;;;;;;1.25;0.95;;;12.80;99.90;;;;;;5130233;27;20050;-74
2023/07/21 00:03:38;;;;;;;1.48;0.90;;;12.80;99.90;;;;;;5123068;27;20043;-74
2023/07/21 00:06:06;;;;;;;1.17;0.80;;;12.70;99.90;;;;;;5130554;27;20130;-74
2023/07/21 00:08:33;;;;;;;1.20;0.88;;;12.70;99.90;;;;;;5128800;28;20054;-74
2023/07/21 00:10:59;;;;;;;1.42;1.00;;;12.60;99.90;;;;;;5122238;28;20051;-74
2023/07/21 00:13:25;;;;;;;1.00;0.88;;;12.50;99.90;;;;;;5128570;28;20035;-74
2023/07/21 00:15:52;;;;;;;0.98;0.80;;;12.50;99.90;;;;;;5126651;28;20037;-74
2023/07/21 00:18:19;;;;;;;1.08;0.80;;;12.40;99.90;;;;;;5105509;28;20955;-74
2023/07/21 00:20:45;;;;;;;1.00;0.80;;;12.30;99.90;;;;;;5128893;28;20031;-73
2023/07/21 00:23:12;;;;;;;;;;;12.30;99.90;;;;;;5112638;28;20122;-74
2023/07/21 00:25:39;;;;;;;1.50;0.90;;;12.20;99.90;;;;;;5091077;28;20561;-74
2023/07/21 00:28:05;;;;;;;1.17;0.90;;;12.20;99.90;;;;;;5125079;28;20057;-74
2023/07/21 00:30:31;;;;;;;1.80;0.88;;;12.10;99.90;;;;;;5128804;28;20039;-74
2023/07/21 00:32:57;;;;;;;1.25;1.00;;;12.10;99.90;;;;;;5127550;28;20039;-74
2023/07/21 00:35:23;;;;;;;0.82;0.80;;;12.10;99.90;;;;;;5111717;28;20042;-74
2023/07/21 00:37:48;;;;;;;0.90;0.75;;;12.10;99.90;;;;;;5127928;28;20105;-74
2023/07/21 00:40:18;;;;;;;1.52;0.90;;;12.00;99.90;;;;;;5126256;28;20035;-74
2023/07/21 00:42:45;;;;;;;0.90;0.70;;;12.00;99.90;;;;;;5127819;28;20047;-74
2023/07/21 00:45:13;;;;;;;1.52;1.00;;;11.90;99.90;;;;;;5128578;28;20035;-74
2023/07/21 00:47:40;;;;;;;1.20;0.90;;;11.90;99.90;;;;;;5109632;28;20049;-74
2023/07/21 00:50:07;;;;;;;1.00;0.88;;;11.90;99.90;;;;;;5115192;28;20066;-74
2023/07/21 00:52:34;;;;;;;1.13;0.80;;;11.80;99.90;;;;;;5106750;28;20047;-74
2023/07/21 00:55:00;;;;;;;1.38;0.85;;;11.70;99.90;;;;;;5096982;28;20058;-74
2023/07/21 00:57:26;;;;;;;0.90;0.70;;;11.70;99.90;;;;;;5116908;28;20043;-74
2023/07/21 00:59:52;;;;;;;0.70;0.70;;;11.70;99.90;;;;;;5127085;28;20057;-74
2023/07/21 01:02:18;;;;;;;1.05;0.77;;;11.70;99.90;;;;;;5120735;28;20032;-74
2023/07/21 01:04:44;;;;;;;1.42;1.02;;;11.70;99.90;;;;;;5128997;28;20138;-74
2023/07/21 01:07:10;;;;;;;1.27;0.90;;;11.80;99.90;;;;;;5117180;28;20509;-75
2023/07/21 01:09:37;;;;;;;;;;;11.70;99.90;;;;;;5120375;28;20054;-75
2023/07/21 01:12:06;;;;;;;1.55;1.13;;;11.70;99.90;;;;;;5125266;28;20000;-75
2023/07/21 01:14:35;;;;;;;1.10;0.80;;;11.70;99.90;;;;;;5118542;28;20043;-74
2023/07/21 01:17:02;;;;;;;1.05;0.85;;;11.70;99.90;;;;;;5101750;27;20039;-75
2023/07/21 01:19:30;;;;;;;1.15;1.00;;;11.70;99.90;;;;;;5124991;27;20536;-75
2023/07/21 01:22:02;;;;;;;1.98;1.00;;;11.70;99.90;;;;;;5126435;27;20593;-75
2023/07/21 01:24:46;;;;;;;1.55;0.80;;;11.70;99.90;;;;;;5129549;27;20405;-75
2023/07/21 01:27:13;;;;;;;0.95;0.85;;;11.70;99.90;;;;;;5119910;27;20096;-75
2023/07/21 01:29:42;;;;;;;1.00;0.90;;;11.70;99.90;;;;;;5114789;27;20066;-75
2023/07/21 01:32:11;;;;;;;0.80;0.70;;;11.70;99.90;;;;;;5131969;27;20042;-75
2023/07/21 01:34:38;;;;;;;0.85;0.70;;;11.70;99.90;;;;;;5114367;27;20042;-74
2023/07/21 01:37:07;;;;;;;0.52;0.52;;;11.70;99.90;;;;;;5106112;27;20546;-75
2023/07/21 01:39:35;;;;;;;1.35;0.82;;;11.70;99.90;;;;;;5117120;27;20055;-75
2023/07/21 01:42:03;;;;;;;0.90;0.77;;;11.60;99.90;;;;;;5131065;27;20370;-75
2023/07/21 01:44:29;;;;;;;1.15;0.88;;;11.60;99.90;;;;;;5122542;27;21484;-75
2023/07/21 01:46:54;;;;;;;0.85;0.70;;;11.50;99.90;;;;;;5124280;27;20050;-75
2023/07/21 01:49:20;;;;;;;0.95;0.80;;;11.50;99.90;;;;;;5128109;27;20042;-75
2023/07/21 01:51:49;;;;;;;1.20;0.95;;;11.50;99.90;;;;;;5115579;27;20046;-74
2023/07/21 01:54:25;;;;;;;1.58;1.00;;;11.50;99.90;;;;;;5130336;27;20061;-74
2023/07/21 01:57:03;;;;;;;1.77;1.17;;;11.40;99.90;;;;;;5119447;27;20119;-74
2023/07/21 01:59:29;;;;;;;1.80;1.40;;;11.50;99.90;;;;;;5130978;27;20179;-74
2023/07/21 02:01:56;;;;;;;1.70;1.30;;;11.50;99.90;;;;;;5124498;27;20070;-75
2023/07/21 02:04:22;;;;;;;1.63;1.17;;;11.40;99.90;;;;;;5130979;27;20585;-75
2023/07/21 02:06:49;;;;;;;1.75;1.00;;;11.40;99.90;;;;;;5127623;27;20164;-75
2023/07/21 02:09:15;;;;;;;0.80;0.73;;;11.40;99.90;;;;;;5113886;27;20043;-75
2023/07/21 02:11:41;;;;;;;;;;;11.40;99.90;;;;;;5134885;27;20051;-73
2023/07/21 02:14:07;;;;;;;1.08;0.80;;;11.40;99.90;;;;;;5133677;27;20040;-72
2023/07/21 02:16:33;;;;;;;1.48;0.80;;;11.30;99.90;;;;;;5116542;27;20121;-72
2023/07/21 02:18:58;;;;;;;0.75;0.68;;;11.30;99.90;;;;;;5133794;27;20050;-72
2023/07/21 02:21:24;;;;;;;0.90;0.70;;;11.20;99.90;;;;;;5135870;27;20059;-72
2023/07/21 02:23:50;;;;;;;0.70;0.60;;;11.30;99.90;;;;;;5128640;27;20497;-72
2023/07/21 02:26:16;;;;;;;0.95;0.70;;;11.20;99.90;;;;;;5131527;27;20039;-72
2023/07/21 02:28:42;;;;;;;1.17;0.75;;;11.10;99.90;;;;;;5132924;27;20045;-73
2023/07/21 02:31:09;;;;;;;0.60;0.60;;;11.10;99.90;;;;;;5113686;27;20050;-72
2023/07/21 02:33:35;;;;;;;0.98;0.60;;;11.10;99.90;;;;;;5126234;27;20436;-74
2023/07/21 02:36:03;;;;;;;0.50;0.50;;;11.00;99.90;;;;;;5125530;27;20046;-73
2023/07/21 02:38:29;;;;;;;0.60;0.57;;;11.00;99.90;;;;;;5116218;27;20038;-72
2023/07/21 02:40:58;;;;;;;1.70;0.80;;;10.90;99.90;;;;;;5107793;27;20129;-73
2023/07/21 02:43:24;;;;;;;0.65;0.65;;;11.00;99.90;;;;;;5117025;27;20062;-73
2023/07/21 02:45:50;;;;;;;0.95;0.70;;;11.00;99.90;;;;;;5115323;27;20378;-74
2023/07/21 02:48:17;;;;;;;1.00;0.60;;;11.00;99.90;;;;;;5135064;27;20046;-73
2023/07/21 02:50:48;;;;;;;0.70;0.60;;;11.00;99.90;;;;;;5134562;27;20043;-73
2023/07/21 02:53:15;;;;;;;0.70;0.60;;;11.00;99.90;;;;;;5132926;27;20074;-73
2023/07/21 02:55:42;;;;;;;0.60;0.60;;;11.10;99.90;;;;;;5134232;27;20125;-73
2023/07/21 02:58:09;;;;;;;0.90;0.75;;;11.00;99.90;;;;;;5132996;27;20038;-72
2023/07/21 03:00:35;;;;;;;0.75;0.65;;;11.00;99.90;;;;;;5134329;27;20307;-73
2023/07/21 03:03:03;;;;;;;1.00;0.70;;;11.00;99.90;;;;;;5153598;27;20049;-73
2023/07/21 03:05:29;;;;;;;0.63;0.63;;;10.90;99.90;;;;;;5135150;27;20070;-73
2023/07/21 03:07:59;;;;;;;0.73;0.60;;;10.90;99.90;;;;;;5102019;27;20051;-73
2023/07/21 03:10:25;;;;;;;0.77;0.63;;;10.90;99.90;;;;;;5134266;27;20424;-73
2023/07/21 03:12:51;;;;;;;0.70;0.70;;;10.90;99.90;;;;;;5133559;27;20105;-71
2023/07/21 03:15:17;;;;;;;0.77;0.63;;;10.90;99.90;;;;;;5133288;27;20097;-71
2023/07/21 03:17:43;;;;;;;0.68;0.60;;;10.90;99.90;;;;;;5133612;27;20034;-72
2023/07/21 03:20:12;;;;;;;0.40;0.40;;;10.90;99.90;;;;;;5134300;27;20145;-72
2023/07/21 03:22:42;;;;;;;0.50;0.50;;;10.80;99.90;;;;;;5133358;27;20113;-72
2023/07/21 03:25:09;;;;;;;0.50;0.43;;;10.80;99.90;;;;;;5131980;27;20046;-72
2023/07/21 03:27:35;;;;;;;0.70;0.57;;;10.80;99.90;;;;;;5133581;27;20085;-71
2023/07/21 03:30:02;;;;;;;0.90;0.60;;;10.80;99.90;;;;;;5132092;27;20073;-71
2023/07/21 03:32:28;;;;;;;1.00;0.60;;;10.90;99.90;;;;;;5132285;27;20129;-72
2023/07/21 03:34:57;;;;;;;0.73;0.60;;;10.80;99.90;;;;;;5134381;27;20229;-72
2023/07/21 03:37:26;;;;;;;1.05;0.52;;;10.80;99.90;;;;;;5149805;27;20039;-71
2023/07/21 03:39:52;;;;;;;0.70;0.50;;;10.90;99.90;;;;;;5130153;27;20125;-71
2023/07/21 03:42:18;;;;;;;0.60;0.50;;;10.80;99.90;;;;;;5102583;27;20055;-72
2023/07/21 03:44:47;;;;;;;;;;;10.80;99.90;;;;;;5134379;27;20050;-72
2023/07/21 03:47:14;;;;;;;0.90;0.65;;;10.80;99.90;;;;;;5132207;27;19919;-71
2023/07/21 03:49:40;;;;;;;0.68;0.60;;;10.90;99.90;;;;;;5134041;27;20039;-72
2023/07/21 03:52:05;;;;;;;0.90;0.70;;;10.90;99.90;;;;;;5133220;27;20458;-71
2023/07/21 03:54:31;;;;;;;1.15;0.70;;;10.90;99.90;;;;;;5123025;27;20042;-72
2023/07/21 03:56:57;;;;;;;1.10;0.68;;;10.90;99.90;;;;;;5113559;27;20046;-73
2023/07/21 03:59:22;;;;;;;0.70;0.60;;;10.90;99.90;;;;;;5132802;27;20094;-71
2023/07/21 04:01:48;;;;;;;0.93;0.68;;;10.90;99.90;;;;;;5113187;27;20046;-71
2023/07/21 04:04:15;;;;;;;0.90;0.63;;;10.90;99.90;;;;;;5130786;27;20043;-71
2023/07/21 04:06:42;;;;;;;1.15;0.65;;;10.80;99.90;;;;;;5128610;27;20035;-72
2023/07/21 04:09:09;;;;;;;0.70;0.52;;;10.80;99.90;;;;;;5121902;27;20135;-72
2023/07/21 04:11:34;;;;;;;0.90;0.63;;;10.80;99.90;;;;;;5132998;27;20059;-71
2023/07/21 04:14:00;;;;;;;0.70;0.63;;;10.70;99.90;;;;;;5114771;27;20047;-71
2023/07/21 04:16:26;;;;;;;0.70;0.57;;;10.80;99.90;;;;;;5115013;27;20389;-72
2023/07/21 04:18:52;;;;;;;0.70;0.60;;;10.70;99.90;;;;;;5132457;27;20050;-71
2023/07/21 04:21:17;;;;;;;1.02;0.70;;;10.80;99.90;;;;;;5133264;27;20189;-72
2023/07/21 04:23:43;;;;;;;0.52;0.50;;;10.80;99.90;;;;;;5117993;27;20106;-72
2023/07/21 04:26:11;;;;;;;0.68;0.57;;;10.90;99.90;;;;;;5112215;27;20115;-71
2023/07/21 04:28:37;;;;;;;0.77;0.60;;;10.90;99.90;;;;;;5132138;27;20054;-71
2023/07/21 04:31:02;;;;;;;0.80;0.80;;;10.90;99.90;;;;;;5105482;27;20143;-72
2023/07/21 04:33:28;;;;;;;0.63;0.63;;;11.00;99.90;;;;;;5098687;27;20035;-75
2023/07/21 04:35:54;;;;;;;0.75;0.52;;;11.00;99.90;;;;;;5131509;27;20043;-75
2023/07/21 04:38:20;;;;;;;0.40;0.40;;;11.00;99.90;;;;;;5121205;28;20100;-75
2023/07/21 04:40:45;;;;;;;0.75;0.55;;;11.10;99.90;;;;;;5130754;27;20039;-75
2023/07/21 04:43:12;;;;;;;0.60;0.55;;;11.10;99.90;;;;;;5130048;27;20064;-75
2023/07/21 04:45:43;;;;;;;0.63;0.57;;;11.20;99.90;;;;;;5109890;27;20030;-75
2023/07/21 04:48:09;;;;;;;0.50;0.50;;;11.30;99.90;;;;;;5121558;27;20047;-75
2023/07/21 04:50:35;;;;;;;0.50;0.40;;;11.40;99.90;;;;;;5128485;27;20137;-75
2023/07/21 04:53:04;;;;;;;0.40;0.40;;;11.50;99.90;;;;;;5131838;27;20541;-75
2023/07/21 04:55:30;;;;;;;1.00;0.47;;;11.50;99.90;;;;;;5136235;27;20046;-75
2023/07/21 04:57:55;;;;;;;0.82;0.60;;;11.60;99.90;;;;;;5134798;27;20046;-75
2023/07/21 05:00:21;;;;;;;0.57;0.50;;;11.70;99.90;;;;;;5117882;27;20050;-75
2023/07/21 05:02:47;;;;;;;0.70;0.50;;;11.80;99.90;;;;;;5133627;27;20049;-74
2023/07/21 05:05:13;;;;;;;1.00;0.70;;;11.90;99.90;;;;;;5119592;27;20077;-73
2023/07/21 05:07:38;;;;;;;0.50;0.40;;;12.10;99.90;;;;;;5132934;27;20078;-74
2023/07/21 05:10:05;;;;;;;0.55;0.50;;;12.10;99.90;;;;;;5134013;27;20512;-74
2023/07/21 05:12:31;;;;;;;1.38;0.55;;;12.20;99.90;;;;;;5135534;27;20047;-74
2023/07/21 05:14:57;;;;;;;0.63;0.60;;;12.30;99.90;;;;;;5136440;27;20397;-74
2023/07/21 05:17:23;;;;;;;0.75;0.60;;;12.40;99.90;;;;;;5132166;27;20080;-75
2023/07/21 05:19:49;;;;;;;0.47;0.40;;;12.50;99.90;;;;;;5110227;27;20043;-75
2023/07/21 05:22:14;;;;;;;0.73;0.60;;;12.50;99.90;;;;;;5134841;27;20148;-75
2023/07/21 05:24:40;;;;;;;0.40;0.40;;;12.60;99.90;;;;;;5115123;27;20148;-75
2023/07/21 05:27:06;;;;;;;0.70;0.50;;;12.70;99.90;;;;;;5107678;27;20089;-73
2023/07/21 05:29:33;;;;;;;;;;;12.80;99.90;;;;;;5136477;27;20031;-73
2023/07/21 05:31:58;;;;;;;0.60;0.50;;;12.90;99.90;;;;;;5136154;27;19919;-73
2023/07/21 05:34:24;;;;;;;0.50;0.40;;;13.00;99.90;;;;;;5129595;27;20087;-73
2023/07/21 05:36:50;;;;;;;0.40;0.40;;;13.10;99.90;;;;;;5136538;27;20039;-73
2023/07/21 05:39:16;;;;;;;1.15;0.80;;;13.10;99.90;;;;;;5119245;27;20038;-73
2023/07/21 05:41:41;;;;;;;0.43;0.43;;;13.20;99.90;;;;;;5124903;27;20381;-73
2023/07/21 05:44:08;;;;;;;0.68;0.60;;;13.20;99.90;;;;;;5133541;27;20057;-73
2023/07/21 05:46:38;;;;;;;1.20;0.60;;;13.30;99.90;;;;;;5136307;27;20118;-73
2023/07/21 05:49:05;;;;;;;0.68;0.60;;;13.40;99.90;;;;;;5134864;27;20046;-74
2023/07/21 05:51:32;;;;;;;0.60;0.60;;;13.50;99.90;;;;;;5135639;27;20086;-74
2023/07/21 05:54:01;;;;;;;1.05;0.60;;;13.50;99.90;;;;;;5114474;27;20100;-74
2023/07/21 05:56:26;;;;;;;0.77;0.60;;;13.50;99.90;;;;;;5130617;27;20441;-74
2023/07/21 05:58:52;;;;;;;0.88;0.50;;;13.60;99.90;;;;;;5124592;27;20058;-73
2023/07/21 06:01:18;;;;;;;0.75;0.60;;;13.80;99.90;;;;;;5149500;27;20046;-72
2023/07/21 06:03:43;;;;;;;0.60;0.40;;;13.90;99.90;;;;;;5116868;27;20310;-73
2023/07/21 06:06:09;;;;;;;0.93;0.70;;;14.00;99.90;;;;;;5108523;27;20084;-73
2023/07/21 06:08:35;;;;;;;0.93;0.60;;;14.10;99.90;;;;;;5097647;27;20039;-72
2023/07/21 06:11:02;;;;;;;0.80;0.60;;;14.20;99.90;;;;;;5114850;27;20051;-73
2023/07/21 06:13:29;;;;;;;0.93;0.60;;;14.30;99.90;;;;;;5131462;27;20058;-73
2023/07/21 06:15:58;;;;;;;1.33;0.80;;;14.50;99.90;;;;;;5135700;27;20038;-73
2023/07/21 06:18:24;;;;;;;0.50;0.50;;;14.60;99.90;;;;;;5135205;27;20330;-73
2023/07/21 06:20:52;;;;;;;0.50;0.40;;;14.70;99.90;;;;;;5114605;27;20175;-79
2023/07/21 06:23:19;;;;;;;0.52;0.50;;;14.90;99.90;;;;;;5094865;27;20034;-72
2023/07/21 06:25:45;;;;;;;0.60;0.50;;;14.90;99.90;;;;;;5121187;27;20126;-73
2023/07/21 06:28:12;;;;;;;0.73;0.50;;;15.00;99.90;;;;;;5123001;27;20636;-73
2023/07/21 06:30:38;;;;;;;0.82;0.50;;;15.20;99.90;;;;;;5097205;27;20039;-71
2023/07/21 06:33:07;;;;;;;1.55;0.75;;;15.30;99.90;;;;;;5138367;27;20035;-71
2023/07/21 06:35:34;;;;;;;1.27;0.60;;;15.40;99.90;;;;;;5107799;27;20118;-72
2023/07/21 06:38:00;;;;;;;0.50;0.50;;;15.50;99.90;;;;;;5130875;27;20038;-72
2023/07/21 06:40:26;;;;;;;0.68;0.55;;;15.60;99.90;;;;;;5129341;27;20124;-72
2023/07/21 06:42:52;;;;;;;0.77;0.63;;;15.70;99.90;;;;;;5133151;27;20039;-72
2023/07/21 06:45:18;;;;;;;1.02;0.68;;;15.80;51.70;;;;;;5149084;27;20390;-72
2023/07/21 06:47:44;;;;;;;0.75;0.60;;;16.00;1.00;;;;;;5129044;27;20077;-72
2023/07/21 06:50:10;;;;;;;0.70;0.70;;;16.10;99.90;;;;;;5131014;27;20039;-71
2023/07/21 06:52:36;;;;;;;0.85;0.75;;;16.20;1.00;;;;;;5124882;27;20461;-72
2023/07/21 06:55:03;;;;;;;1.45;0.90;;;16.30;99.90;;;;;;5127142;27;20043;-72
2023/07/21 06:57:29;;;;;;;0.75;0.75;;;16.50;99.90;;;;;;5129129;27;20046;-72
2023/07/21 06:59:55;;;;;;;1.33;0.80;;;16.60;99.90;;;;;;5128883;27;20047;-72
2023/07/21 07:02:20;;;;;;;0.70;0.60;;;16.80;53.30;;;;;;5126810;27;20499;-72
2023/07/21 07:04:48;;;;;;;1.75;0.75;;;16.90;1.00;;;;;;5132121;27;20053;-72
2023/07/21 07:07:15;;;;;;;0.88;0.70;;;17.00;1.00;;;;;;5129166;27;20074;-80
2023/07/21 07:09:41;;;;;;;0.60;0.60;;;17.10;1.00;;;;;;5130095;27;20041;-71
2023/07/21 07:12:08;;;;;;;1.63;1.00;;;17.20;1.00;;;;;;5126789;27;20056;-71
2023/07/21 07:14:34;;;;;;;0.93;0.82;;;17.20;93.90;;;;;;5125066;27;20042;-72
2023/07/21 07:16:59;;;;;;;0.85;0.52;;;17.30;51.20;;;;;;5094774;27;20099;-71
2023/07/21 07:19:25;;;;;;;1.25;0.77;;;17.50;99.90;;;;;;5132049;27;20052;-84
2023/07/21 07:21:51;;;;;;;0.80;0.60;;;17.60;1.00;;;;;;5148359;27;20042;-72
2023/07/21 07:24:18;;;;;;;0.80;0.60;;;17.70;3.90;;;;;;5113378;27;20115;-71
2023/07/21 07:26:44;;;;;;;1.02;0.70;;;17.80;99.90;;;;;;5091793;27;20041;-72
2023/07/21 07:29:10;;;;;;;;;;;17.90;99.90;;;;;;5132024;27;20038;-72
2023/07/21 07:31:37;;;;;;;1.15;0.50;;;17.90;99.90;;;;;;5147171;27;19915;-72
2023/07/21 07:34:03;;;;;;;0.50;0.50;;;17.90;99.90;;;;;;5133132;27;20039;-72
2023/07/21 07:36:29;;;;;;;0.63;0.50;;;18.10;99.90;;;;;;5113711;27;20385;-72
2023/07/21 07:38:55;;;;;;;;;;;18.20;99.90;;;;;;5124521;27;20042;-75
2023/07/21 07:41:20;;;;;;;0.47;0.47;;;18.30;99.90;;;;;;5126979;27;19975;-74
2023/07/21 07:43:47;;;;;;;3.15;1.33;;;18.40;99.90;;;;;;5124618;27;20046;-74
2023/07/21 07:46:13;;;;;;;;;;;18.40;99.90;;;;;;5127295;27;20038;-75
2023/07/21 07:48:38;;;;;;;1.17;0.90;;;18.40;99.90;;;;;;5127122;27;19970;-75
2023/07/21 07:51:04;;;;;;;;;;;18.40;46.30;;;;;;5126865;27;20066;-76
2023/07/21 07:53:35;;;;;;;1.20;0.77;;;18.40;90.00;;;;;;5107658;27;19919;-72
2023/07/21 07:56:01;;;;;;;0.80;0.70;;;18.40;1.00;;;;;;5124506;27;20085;-73
2023/07/21 07:58:27;;;;;;;1.00;0.80;;;18.40;57.90;;;;;;5125020;27;20038;-73
2023/07/21 08:00:57;;;;;;;;;;;18.20;95.30;;;;;;5130747;27;20093;-73
2023/07/21 08:03:23;;;;;;;1.48;1.00;;;18.30;65.10;;;;;;5120778;27;19938;-72
2023/07/21 08:05:50;;;;;;;1.20;0.70;;;18.10;20.20;;;;;;5124885;27;20035;-72
2023/07/21 08:08:18;;;;;;;2.97;0.82;;;18.10;99.90;;;;;;5131668;27;20045;-72
2023/07/21 08:10:44;;;;;;;1.20;0.90;;;18.20;99.90;;;;;;5075744;27;20082;-73
2023/07/21 08:13:10;;;;;;;0.50;0.50;;;18.20;43.60;;;;;;5096132;27;20470;-73
2023/07/21 08:15:42;;;;;;;1.10;0.70;;;18.40;99.90;;;;;;5112390;28;20027;-72
2023/07/21 08:18:10;;;;;;;0.65;0.60;;;18.60;99.90;;;;;;5145327;27;20401;-72
2023/07/21 08:20:37;;;;;;;1.05;0.75;;;18.70;99.90;;;;;;5127659;27;20140;-72
2023/07/21 08:23:04;;;;;;;0.70;0.70;;;18.60;1.00;;;;;;5105368;28;20045;-73
2023/07/21 08:25:30;;;;;;;0.95;0.80;;;18.60;1.00;;;;;;5108997;27;20397;-73
2023/07/21 08:27:55;;;;;;;;;;;18.80;3.70;;;;;;5127711;27;20043;-73
2023/07/21 08:30:21;;;;;;;1.65;0.82;;;18.90;10.60;;;;;;5120965;27;19923;-73
2023/07/21 08:32:46;;;;;;;;;;;19.00;13.30;;;;;;5113077;27;20041;-72
2023/07/21 08:35:12;;;;;;;0.52;0.50;;;19.10;15.00;;;;;;5125201;27;19915;-72
2023/07/21 08:37:38;;;;;;;;;;;19.40;78.50;;;;;;5123155;27;20045;-73
2023/07/21 08:40:05;;;;;;;0.70;0.70;;;19.30;1.00;;;;;;5120078;27;19975;-76
2023/07/21 08:42:34;;;;;;;2.03;1.00;;;19.40;1.00;;;;;;5127169;27;20081;-75
2023/07/21 08:45:02;;;;;;;1.45;0.95;;;19.80;1.00;;;;;;5127384;27;20125;-77
2023/07/21 08:47:28;;;;;;;1.23;0.90;;;19.70;99.90;;;;;;5136398;27;20049;-76
2023/07/21 08:49:54;;;;;;;;;;;19.40;1.00;;;;;;5138067;27;20043;-76
2023/07/21 08:52:19;;;;;;;1.17;0.80;;;19.50;1.00;;;;;;5123559;27;20320;-76
2023/07/21 08:54:45;;;;;;;;;;;19.50;1.00;;;;;;5126061;27;20473;-77
2023/07/21 08:57:12;;;;;;;0.98;0.57;;;19.70;1.00;;;;;;5147505;27;19964;-76
2023/07/21 08:59:38;;;;;;;0.65;0.40;;;19.70;1.00;;;;;;5155581;27;20552;-76
2023/07/21 09:02:04;;;;;;;1.40;0.70;;;19.70;99.90;;;;;;5114577;27;20043;-76
2023/07/21 09:04:30;;;;;;;;;;;19.70;99.90;;;;;;5133699;27;20042;-76
2023/07/21 09:06:58;;;;;;;1.90;0.80;;;20.00;1.00;;;;;;5132172;27;20303;-76
2023/07/21 09:09:27;;;;;;;2.15;0.60;;;20.10;99.90;;;;;;5155550;27;20523;-76
2023/07/21 09:12:03;;;;;;;0.80;0.60;;;20.20;99.90;;;;;;5131737;27;20051;-76
2023/07/21 09:14:44;;;;;;;0.95;0.43;;;20.00;99.90;;;;;;5136163;27;20051;-76
2023/07/21 09:17:13;;;;;;;1.20;0.60;;;20.00;99.90;;;;;;5118875;27;20045;-76
2023/07/21 09:19:40;;;;;;;0.65;0.65;;;20.00;99.90;;;;;;5113197;27;20096;-76
2023/07/21 09:22:07;;;;;;;0.70;0.60;;;20.00;99.90;;;;;;5133577;27;20540;-76
2023/07/21 09:24:33;;;;;;;0.98;0.50;;;20.00;99.90;;;;;;5135837;27;20043;-76
2023/07/21 09:27:18;;;;;;;0.50;0.47;;;20.00;99.90;;;;;;5135673;27;20517;-73
2023/07/21 09:29:44;;;;;;;0.98;0.70;;;20.30;99.90;;;;;;5122091;27;20034;-73
2023/07/21 09:32:13;;;;;;;0.80;0.50;;;20.30;99.90;;;;;;5133528;27;20115;-73
2023/07/21 09:34:57;;;;;;;0.68;0.47;;;20.40;99.90;;;;;;5116039;27;20566;-73
2023/07/21 09:37:27;;;;;;;1.33;0.52;;;20.50;99.90;;;;;;5131120;27;20035;-77
2023/07/21 09:40:02;;;;;;;0.80;0.52;;;20.60;99.90;;;;;;5115652;27;20084;-76
2023/07/21 09:42:29;;;;;;;0.60;0.45;;;20.90;99.90;;;;;;5134349;27;20473;-76
2023/07/21 09:44:56;;;;;;;0.77;0.60;;;21.40;28.00;;;;;;5118194;27;20055;-76
2023/07/21 09:47:23;;;;;;;1.05;0.60;;;21.50;1.00;;;;;;5135672;27;20042;-76
2023/07/21 09:49:53;;;;;;;0.98;0.77;;;21.60;1.00;;;;;;5123846;27;20039;-77
2023/07/21 09:52:20;;;;;;;2.50;1.00;;;21.30;1.00;;;;;;5118940;27;20038;-76
2023/07/21 09:54:51;;;;;;;1.13;0.80;;;20.80;69.60;;;;;;5135055;27;20070;-76
2023/07/21 09:57:22;;;;;;;0.90;0.50;;;20.50;64.40;;;;;;5116497;27;20050;-76
2023/07/21 09:59:56;;;;;;;0.82;0.60;;;21.00;70.20;;;;;;5136185;27;20050;-76
2023/07/21 10:02:22;;;;;;;0.98;0.75;;;21.00;1.00;;;;;;5133754;27;20047;-76
2023/07/21 10:04:48;;;;;;;1.35;0.73;;;20.80;1.00;;;;;;5116478;27;20043;-76
2023/07/21 10:07:15;;;;;;;0.85;0.60;;;20.90;1.00;;;;;;5118600;27;20661;-76
2023/07/21 10:09:44;;;;;;;0.50;0.43;;;21.10;1.00;;;;;;5132780;27;20043;-76
2023/07/21 10:12:09;;;;;;;0.40;0.30;;;21.30;1.00;;;;;;5135354;27;20058;-76
2023/07/21 10:14:38;;;;;;;1.08;0.60;;;21.70;1.00;;;;;;5117266;27;20540;-76
2023/07/21 10:17:06;;;;;;;1.17;0.50;;;21.70;1.00;;;;;;5117916;27;20035;-76
2023/07/21 10:19:44;;;;;;;0.70;0.50;;;21.60;99.90;;;;;;5129471;27;20039;-76
2023/07/21 10:22:24;;;;;;;1.00;0.68;;;21.60;99.90;;;;;;5135109;27;20044;-76
2023/07/21 10:24:51;;;;;;;0.52;0.40;;;21.40;99.90;;;;;;5152641;27;20385;-76
2023/07/21 10:27:21;;;;;;;0.43;0.40;;;21.50;99.90;;;;;;5135725;27;20027;-76
2023/07/21 10:30:20;;;;;;;0.70;0.40;;;21.50;99.90;;;;;;5131132;27;20520;-77
2023/07/21 10:32:46;;;;;;;1.27;0.68;;;21.50;99.90;;;;;;5116710;27;20142;-76
2023/07/21 10:35:37;;;;;;;0.60;0.60;;;21.40;99.90;;;;;;5129567;27;20046;-76
2023/07/21 10:38:19;;;;;;;0.75;0.60;;;21.20;99.90;;;;;;5103733;27;20042;-73
2023/07/21 10:40:45;;;;;;;1.10;0.70;;;21.10;99.90;;;;;;5116794;27;20074;-73
2023/07/21 10:43:12;;;;;;;1.20;0.70;;;20.90;99.90;;;;;;5124178;27;20553;-73
2023/07/21 10:45:38;;;;;;;1.25;0.80;;;20.90;99.90;;;;;;5113625;27;20079;-73
2023/07/21 10:48:11;;;;;;;0.88;0.60;;;20.80;99.90;;;;;;5153118;27;20038;-73
2023/07/21 10:51:00;;;;;;;2.47;0.70;;;20.80;99.90;;;;;;5133315;27;20047;-73
2023/07/21 10:53:26;;;;;;;1.02;0.90;;;20.80;99.90;;;;;;5131092;27;20039;-73
2023/07/21 10:55:53;;;;;;;1.38;1.00;;;20.90;1.00;;;;;;5132304;27;20044;-73
2023/07/21 10:58:19;;;;;;;1.00;0.82;;;20.90;1.00;;;;;;5126176;27;20038;-73
2023/07/21 11:00:51;;;;;;;1.23;0.88;;;21.00;99.90;;;;;;5113334;27;20047;-73
2023/07/21 11:03:18;;;;;;;1.00;0.80;;;21.00;99.90;;;;;;5120863;27;20046;-73
2023/07/21 11:05:44;;;;;;;0.80;0.60;;;21.20;1.00;;;;;;5133910;27;20039;-73
2023/07/21 11:08:28;;;;;;;1.10;0.60;;;21.30;99.90;;;;;;5119579;27;20070;-73
2023/07/21 11:10:54;;;;;;;1.00;0.60;;;21.50;99.90;;;;;;5103187;27;20047;-73
2023/07/21 11:13:22;;;;;;;1.77;0.80;;;21.60;99.90;;;;;;5129677;27;20054;-73
2023/07/21 11:15:54;;;;;;;0.90;0.70;;;21.60;99.90;;;;;;5133705;27;20170;-73
2023/07/21 11:18:20;;;;;;;1.65;0.82;;;21.60;99.90;;;;;;5134386;27;20045;-73
2023/07/21 11:20:51;;;;;;;1.17;0.70;;;21.50;99.90;;;;;;5124188;27;20197;-73
2023/07/21 11:23:17;;;;;;;0.70;0.70;;;21.70;99.90;;;;;;5115281;27;20048;-72
2023/07/21 11:26:10;;;;;;;2.42;1.02;;;21.70;99.90;;;;;;5133548;27;20039;-73
2023/07/21 11:28:41;;;;;;;1.70;0.98;;;21.60;99.90;;;;;;5121861;27;20057;-74
2023/07/21 11:31:15;;;;;;;1.40;1.15;;;21.60;99.90;;;;;;5143442;27;20050;-74
2023/07/21 11:33:48;;;;;;;4.10;1.55;;;21.50;99.90;;;;;;5122759;27;20419;-74
2023/07/21 11:36:18;;;;;;;2.92;1.10;;;21.70;99.90;;;;;;5113552;27;20047;-72
2023/07/21 11:38:57;;;;;;;2.22;1.05;;;22.00;99.90;;;;;;5127862;27;20043;-73
2023/07/21 11:41:39;;;;;;;2.75;1.00;;;22.00;99.90;;;;;;5133241;27;20039;-74
2023/07/21 11:44:11;;;;;;;1.48;0.82;;;22.10;99.90;;;;;;5119786;27;20369;-73
2023/07/21 11:46:38;;;;;;;1.40;1.00;;;22.30;99.90;;;;;;5134208;27;20046;-74
2023/07/21 11:49:10;;;;;;;1.52;0.80;;;22.40;99.90;;;;;;5131894;27;20046;-73
2023/07/21 11:52:04;;;;;;;1.10;0.90;;;22.30;99.90;;;;;;5131401;27;20042;-75
2023/07/21 11:54:40;;;;;;;1.10;1.00;;;22.30;99.90;;;;;;5112761;27;20095;-73
2023/07/21 11:57:06;;;;;;;1.20;0.95;;;22.10;99.90;;;;;;5132803;27;20075;-73
2023/07/21 11:59:33;;;;;;;1.27;0.80;;;22.30;99.90;;;;;;5112750;27;20062;-73
2023/07/21 12:01:59;;;;;;;1.27;0.80;;;22.20;99.90;;;;;;5097623;27;20390;-74
2023/07/21 12:04:25;;;;;;;1.45;1.00;;;21.90;99.90;;;;;;5113249;27;20043;-74
2023/07/21 12:06:51;;;;;;;1.50;1.00;;;21.70;99.90;;;;;;5121627;27;20118;-72
2023/07/21 12:09:19;;;;;;;2.35;1.10;;;21.40;99.90;;;;;;5115768;27;20046;-73
2023/07/21 12:11:47;;;;;;;4.50;1.60;;;21.20;11.20;;;;;;5124021;27;20078;-73
2023/07/21 12:14:13;;;;;;;2.83;1.40;;;20.40;99.90;;;;;;5124489;27;20072;-73
2023/07/21 12:16:39;;;;;;;3.60;1.60;;;19.50;1.00;;;;;;5127715;27;20048;-73
2023/07/21 12:19:07;;;;;;;4.28;1.70;;;18.90;99.90;;;;;;5126043;28;20088;-73
2023/07/21 12:21:34;;;;;;;3.08;1.88;;;18.40;99.90;;;;;;5125080;27;20074;-73
2023/07/21 12:24:00;;;;;;;2.25;1.40;;;17.90;48.20;;;;;;5149926;27;20133;-74
2023/07/21 12:26:26;;;;;;;;;;;17.70;99.90;;;;;;5133762;27;20118;-73
2023/07/21 12:28:51;;;;;;;2.55;1.70;;;17.60;1.00;;;;;;5133228;27;20285;-74
2023/07/21 12:31:17;;;;;;;;;;;17.50;99.90;;;;;;5112806;28;20484;-74
2023/07/21 12:33:44;;;;;;;4.35;2.00;;;17.70;99.90;;;;;;5127799;27;19919;-73
2023/07/21 12:36:16;;;;;;;3.88;1.70;;;17.50;99.90;;;;;;5124941;27;20046;-73
2023/07/21 12:38:42;;;;;;;3.17;1.63;;;17.70;99.90;;;;;;5145661;27;20072;-74
2023/07/21 12:41:08;;;;;;;2.53;1.65;;;17.80;99.90;;;;;;5132687;27;20042;-73
2023/07/21 12:43:35;;;;;;;;;;;17.80;99.90;;;;;;5130033;28;20039;-71
2023/07/21 12:46:01;;;;;;;2.97;1.80;;;17.70;99.90;;;;;;5116565;27;19919;-73
2023/07/21 12:48:28;;;;;;;;;;;17.70;99.90;;;;;;5114646;28;20033;-74
2023/07/21 12:50:54;;;;;;;3.97;1.73;;;17.40;99.90;;;;;;5115921;27;19923;-73
2023/07/21 12:53:19;;;;;;;;;;;17.40;1.00;;;;;;5122709;27;20114;-73
2023/07/21 12:55:50;;;;;;;4.70;2.00;;;17.30;95.10;;;;;;5133447;27;20392;-74